Time;durP1;ratioP1;P1;durP2;ratioP2;P2;SDS_P1;SDS_P2;PMS_P1;PMS_P2;Temp;Humidity;BMP_temperature;BMP_pressure;BME280_temperature;BME280_humidity;BME280_pressure;Samples;Min_cycle;Max_cycle;Signal;HPM_P1;HPM_P2
2024/04/16 00:00:53;;;;;;;4.53;2.28;;;;;;;11.73;65.46;98532.75;5205691;27;94708;-73
2024/04/16 00:03:18;;;;;;;4.80;2.45;;;;;;;11.83;65.65;98567.16;5234120;27;94594;-73
2024/04/16 00:05:44;;;;;;;6.30;1.90;;;;;;;11.91;65.55;98550.91;5234458;26;94661;-73
2024/04/16 00:08:09;;;;;;;4.45;1.90;;;;;;;11.81;65.73;98550.66;5231991;26;94773;-73
2024/04/16 00:10:36;;;;;;;7.07;2.20;;;;;;;11.82;65.03;98548.88;5228798;27;94560;-73
2024/04/16 00:13:02;;;;;;;7.38;2.80;;;;;;;11.52;65.64;98506.13;5169541;27;93808;-72
2024/04/16 00:15:48;;;;;;;4.65;2.15;;;;;;;11.77;65.23;98549.16;5205806;27;98069;-72
2024/04/16 00:18:14;;;;;;;8.32;2.30;;;;;;;11.53;64.77;98515.69;5232812;27;97687;-73
2024/04/16 00:20:40;;;;;;;5.80;2.35;;;;;;;11.74;64.82;98552.00;5200108;27;94607;-73
2024/04/16 00:23:05;;;;;;;3.97;1.95;;;;;;;11.49;64.01;98531.75;5234462;27;94571;-73
2024/04/16 00:25:30;;;;;;;5.13;2.35;;;;;;;11.55;63.70;98569.00;5177078;27;97863;-74
2024/04/16 00:27:56;;;;;;;2.15;1.40;;;;;;;11.57;62.40;98567.09;5232544;27;96941;-73
2024/04/16 00:30:21;;;;;;;4.93;1.30;;;;;;;11.50;61.33;98572.88;5195478;27;95208;-74
2024/04/16 00:32:47;;;;;;;9.90;1.75;;;;;;;11.52;61.01;98577.09;5196310;27;94529;-75
2024/04/16 00:35:13;;;;;;;4.82;1.00;;;;;;;11.67;60.33;98595.41;5233533;27;94574;-74
2024/04/16 00:37:38;;;;;;;7.00;0.95;;;;;;;11.27;59.31;98546.31;5234080;26;94653;-73
2024/04/16 00:40:04;;;;;;;2.00;0.90;;;;;;;11.36;58.88;98552.75;5201151;27;94714;-72
2024/04/16 00:42:30;;;;;;;6.80;0.70;;;;;;;11.53;58.51;98606.81;5233180;26;94465;-73
2024/04/16 00:44:55;;;;;;;3.65;0.73;;;;;;;11.48;57.98;98606.28;5205073;27;97195;-72
2024/04/16 00:47:21;;;;;;;8.25;2.45;;;;;;;11.27;57.98;98566.47;5198827;27;97570;-73
2024/04/16 00:49:46;;;;;;;2.88;0.70;;;;;;;11.43;57.49;98596.06;5233469;26;94634;-73
2024/04/16 00:52:12;;;;;;;2.05;0.60;;;;;;;11.55;57.60;98586.56;5204920;27;93564;-73
2024/04/16 00:54:38;;;;;;;4.30;0.70;;;;;;;11.55;57.45;98591.81;5204725;27;94498;-73
2024/04/16 00:57:03;;;;;;;2.63;0.60;;;;;;;11.33;57.37;98547.69;5231560;26;95442;-73
2024/04/16 00:59:31;;;;;;;1.52;0.55;;;;;;;11.49;57.15;98573.78;5233201;27;94542;-73
2024/04/16 01:01:56;;;;;;;2.15;0.52;;;;;;;11.48;56.53;98572.13;5199907;27;94689;-73
2024/04/16 01:04:22;;;;;;;5.57;1.40;;;;;;;11.03;56.15;98550.53;5234552;27;94626;-73
2024/04/16 01:06:49;;;;;;;1.98;0.60;;;;;;;11.03;56.43;98617.00;5232174;27;94690;-73
2024/04/16 01:09:17;;;;;;;2.45;0.70;;;;;;;10.93;56.56;98583.53;5233093;27;94732;-72
2024/04/16 01:11:42;;;;;;;0.90;0.50;;;;;;;11.07;56.21;98625.53;5233643;27;94713;-75
2024/04/16 01:14:08;;;;;;;3.45;0.63;;;;;;;11.21;56.59;98643.03;5232755;27;94662;-73
2024/04/16 01:16:33;;;;;;;3.50;0.60;;;;;;;11.07;57.41;98657.03;5202970;27;94747;-74
2024/04/16 01:19:02;;;;;;;5.07;1.27;;;;;;;10.71;56.01;98631.28;5232178;26;94520;-72
2024/04/16 01:21:28;;;;;;;1.40;0.60;;;;;;;10.55;55.65;98624.31;5228150;27;94482;-73
2024/04/16 01:23:53;;;;;;;0.88;0.30;;;;;;;10.52;55.09;98650.75;5232731;27;94643;-73
2024/04/16 01:26:19;;;;;;;0.88;0.55;;;;;;;10.53;55.10;98660.31;5233575;27;94735;-73
2024/04/16 01:28:44;;;;;;;1.52;0.50;;;;;;;10.31;55.34;98641.56;5232566;27;95019;-73
2024/04/16 01:31:10;;;;;;;2.47;1.10;;;;;;;10.40;55.44;98627.88;5200566;27;94600;-73
2024/04/16 01:33:35;;;;;;;6.68;0.52;;;;;;;10.25;55.04;98626.16;5232563;27;94637;-73
2024/04/16 01:36:01;;;;;;;2.85;0.75;;;;;;;10.44;54.98;98666.09;5234151;27;94959;-73
2024/04/16 01:38:26;;;;;;;0.70;0.60;;;;;;;10.17;55.32;98630.06;5232376;27;94764;-73
2024/04/16 01:40:52;;;;;;;1.45;0.50;;;;;;;10.37;55.51;98664.78;5199456;27;94458;-73
2024/04/16 01:43:17;;;;;;;0.40;0.30;;;;;;;10.29;55.39;98656.53;5198738;27;97477;-73
2024/04/16 01:45:43;;;;;;;3.03;0.40;;;;;;;10.19;56.00;98662.28;5231140;27;94665;-75
2024/04/16 01:48:08;;;;;;;1.10;0.50;;;;;;;10.18;55.90;98667.59;5222572;27;94615;-73
2024/04/16 01:50:33;;;;;;;0.85;0.30;;;;;;;9.96;56.67;98665.41;5194323;27;94579;-73
2024/04/16 01:52:59;;;;;;;1.13;0.40;;;;;;;9.93;56.95;98670.81;5227324;27;94512;-73
2024/04/16 01:55:24;;;;;;;1.98;0.70;;;;;;;9.77;57.92;98694.41;5224966;27;94622;-74
2024/04/16 01:57:50;;;;;;;9.23;1.50;;;;;;;9.75;57.52;98705.00;5231918;27;94639;-72
2024/04/16 02:00:16;;;;;;;3.00;0.80;;;;;;;9.51;57.38;98667.94;5223365;27;94556;-73
2024/04/16 02:02:41;;;;;;;2.10;0.50;;;;;;;9.55;55.81;98663.38;5222437;27;94561;-73
2024/04/16 02:05:07;;;;;;;5.38;0.88;;;;;;;9.64;54.64;98673.31;5230331;27;97308;-74
2024/04/16 02:07:33;;;;;;;0.60;0.50;;;;;;;9.70;54.37;98690.47;5222520;27;95372;-72
2024/04/16 02:09:58;;;;;;;1.00;0.88;;;;;;;9.58;53.73;98691.16;5232864;27;94595;-72
2024/04/16 02:12:24;;;;;;;2.35;0.98;;;;;;;9.50;53.71;98676.69;5231601;27;94635;-73
2024/04/16 02:14:50;;;;;;;1.33;0.70;;;;;;;9.58;53.61;98688.53;5198632;27;94462;-72
2024/04/16 02:17:16;;;;;;;1.92;0.88;;;;;;;9.49;53.46;98697.75;5222556;27;94393;-73
2024/04/16 02:19:41;;;;;;;1.48;1.00;;;;;;;9.34;53.79;98675.00;5204233;27;94628;-72
2024/04/16 02:22:07;;;;;;;15.07;1.63;;;;;;;9.33;53.99;98687.25;5203295;27;97269;-72
2024/04/16 02:24:33;;;;;;;2.05;0.82;;;;;;;9.26;53.81;98692.00;5231727;27;94574;-74
2024/04/16 02:26:59;;;;;;;2.10;1.10;;;;;;;9.09;53.94;98660.66;5231987;27;94557;-73
2024/04/16 02:29:26;;;;;;;1.48;0.95;;;;;;;9.02;53.90;98673.25;5232042;26;94704;-73
2024/04/16 02:31:51;;;;;;;3.15;0.98;;;;;;;9.13;53.84;98700.59;5235510;26;94553;-72
2024/04/16 02:34:18;;;;;;;1.08;0.80;;;;;;;9.20;53.91;98700.19;5234860;26;94638;-73
2024/04/16 02:36:44;;;;;;;2.60;1.20;;;;;;;8.77;53.96;98626.59;5234347;26;95133;-73
2024/04/16 02:39:09;;;;;;;4.82;1.40;;;;;;;9.08;54.27;98685.16;5228463;27;94681;-72
2024/04/16 02:41:35;;;;;;;1.35;1.20;;;;;;;8.91;54.17;98651.19;5205457;27;95381;-72
2024/04/16 02:44:00;;;;;;;3.53;1.13;;;;;;;8.67;54.51;98662.03;5206455;27;94742;-72
2024/04/16 02:46:27;;;;;;;2.20;1.08;;;;;;;9.01;54.45;98712.56;5204646;27;94553;-72
2024/04/16 02:48:52;;;;;;;4.20;1.45;;;;;;;8.82;54.41;98681.31;5226790;27;94633;-72
2024/04/16 02:51:18;;;;;;;2.63;1.20;;;;;;;8.89;54.92;98687.06;5227575;26;95289;-73
2024/04/16 02:53:43;;;;;;;3.08;1.20;;;;;;;8.97;54.67;98697.97;5219796;27;94594;-73
2024/04/16 02:56:09;;;;;;;3.00;1.10;;;;;;;8.93;54.57;98676.34;5222657;26;94588;-73
2024/04/16 02:58:34;;;;;;;2.97;1.27;;;;;;;8.82;54.94;98690.00;5176727;27;94565;-72
2024/04/16 03:01:06;;;;;;;1.88;1.10;;;;;;;8.94;54.41;98690.28;5229183;27;93468;-73
2024/04/16 03:03:33;;;;;;;6.13;1.20;;;;;;;8.80;54.84;98694.44;5196483;27;97155;-72
2024/04/16 03:05:59;;;;;;;3.35;1.48;;;;;;;8.64;55.13;98679.63;5230867;27;94675;-73
2024/04/16 03:08:24;;;;;;;1.25;1.00;;;;;;;8.43;55.01;98644.97;5200681;27;94615;-72
2024/04/16 03:10:49;;;;;;;2.08;1.27;;;;;;;8.52;55.13;98673.28;5229430;26;94548;-73
2024/04/16 03:13:15;;;;;;;2.30;1.50;;;;;;;8.64;55.18;98684.88;5230326;26;94523;-72
2024/04/16 03:15:40;;;;;;;1.27;1.00;;;;;;;8.66;55.18;98701.34;5199131;27;94501;-74
2024/04/16 03:18:06;;;;;;;2.20;1.00;;;;;;;8.56;55.55;98696.59;5198735;27;94645;-72
2024/04/16 03:20:31;;;;;;;2.72;1.75;;;;;;;8.60;55.10;98697.25;5227013;27;97514;-73
2024/04/16 03:22:57;;;;;;;2.78;1.20;;;;;;;8.64;55.24;98677.88;5201102;27;94496;-72
2024/04/16 03:25:23;;;;;;;2.95;1.30;;;;;;;8.65;54.91;98684.81;5228428;27;94959;-72
2024/04/16 03:27:50;;;;;;;4.43;1.10;;;;;;;8.34;54.92;98659.34;5230702;26;94560;-73
2024/04/16 03:30:15;;;;;;;2.10;1.27;;;;;;;8.72;54.63;98690.53;5231710;27;94537;-72
2024/04/16 03:32:41;;;;;;;1.42;1.00;;;;;;;8.59;54.57;98685.13;5228146;27;94443;-74
2024/04/16 03:35:07;;;;;;;2.33;1.55;;;;;;;8.49;54.29;98668.19;5178838;27;94627;-72
2024/04/16 03:37:33;;;;;;;1.77;0.93;;;;;;;8.58;53.92;98699.97;5234062;26;94576;-72
2024/04/16 03:39:59;;;;;;;2.60;1.30;;;;;;;8.10;53.92;98664.06;5205621;27;94316;-73
2024/04/16 03:42:24;;;;;;;3.35;1.50;;;;;;;8.31;53.76;98689.09;5205117;27;97734;-73
2024/04/16 03:44:56;;;;;;;6.88;1.90;;;;;;;8.55;53.40;98704.50;5233685;26;95667;-72
2024/04/16 03:47:22;;;;;;;2.30;1.17;;;;;;;8.53;53.42;98706.38;5232249;27;94618;-72
2024/04/16 03:49:48;;;;;;;3.05;1.50;;;;;;;8.50;53.61;98723.06;5231619;27;93883;-72
2024/04/16 03:52:14;;;;;;;2.42;1.40;;;;;;;8.48;53.51;98742.34;5195798;27;94643;-73
2024/04/16 03:54:39;;;;;;;2.08;1.42;;;;;;;8.50;53.02;98735.28;5234270;26;94599;-72
2024/04/16 03:57:05;;;;;;;2.55;1.63;;;;;;;8.23;52.96;98713.94;5232344;26;94587;-73
2024/04/16 04:02:19;;;;;;;4.47;1.65;;;;;;;8.39;53.18;98768.03;5208440;27;96672;-73
2024/04/16 04:04:45;;;;;;;3.53;1.58;;;;;;;8.54;52.97;98763.81;5235670;26;94576;-73
2024/04/16 04:07:11;;;;;;;5.63;1.63;;;;;;;8.36;52.60;98789.06;5232942;27;94414;-73
2024/04/16 04:09:36;;;;;;;3.65;1.48;;;;;;;8.47;52.67;98780.75;5232779;26;97500;-75
2024/04/16 04:12:02;;;;;;;4.90;1.45;;;;;;;8.39;51.98;98764.59;5203059;27;97778;-73
2024/04/16 04:14:28;;;;;;;2.60;1.77;;;;;;;8.56;52.29;98785.50;5233712;27;94545;-72
2024/04/16 04:16:53;;;;;;;2.53;1.50;;;;;;;8.50;52.19;98746.59;5232129;27;94539;-72
2024/04/16 04:19:19;;;;;;;2.80;1.95;;;;;;;8.66;51.84;98782.44;5170052;27;97061;-73
2024/04/16 04:21:44;;;;;;;6.00;2.47;;;;;;;8.46;51.80;98758.09;5233078;27;94600;-73
2024/04/16 04:24:15;;;;;;;2.78;1.50;;;;;;;8.68;51.85;98775.34;5201196;27;94951;-73
2024/04/16 04:26:40;;;;;;;2.70;1.55;;;;;;;8.80;51.62;98785.19;5191409;27;94569;-73
2024/04/16 04:29:06;;;;;;;3.88;1.60;;;;;;;8.51;51.12;98752.66;5183234;27;97057;-73
2024/04/16 04:31:31;;;;;;;2.92;1.42;;;;;;;8.73;50.75;98745.41;5223901;27;97272;-73
2024/04/16 04:33:57;;;;;;;3.08;1.55;;;;;;;9.22;50.06;98783.88;5225803;27;95301;-73
2024/04/16 04:36:23;;;;;;;4.47;1.90;;;;;;;9.64;49.13;98787.75;5202696;27;94756;-73
2024/04/16 04:38:49;;;;;;;6.05;1.98;;;;;;;9.72;48.82;98801.28;5230462;27;94587;-73
2024/04/16 04:41:14;;;;;;;3.28;1.85;;;;;;;10.02;47.89;98776.94;5206146;27;97647;-75
2024/04/16 04:43:40;;;;;;;3.30;1.67;;;;;;;10.34;47.15;98783.00;5170010;27;94734;-73
2024/04/16 04:46:05;;;;;;;2.70;1.60;;;;;;;10.71;46.59;98796.63;5231726;26;94817;-73
2024/04/16 04:48:31;;;;;;;3.25;1.80;;;;;;;11.05;45.72;98782.31;5223964;26;94620;-73
2024/04/16 04:50:56;;;;;;;3.90;1.30;;;;;;;11.15;45.18;98787.88;5230362;26;94739;-73
2024/04/16 04:53:22;;;;;;;2.28;1.35;;;;;;;11.30;44.79;98795.66;5166387;27;94743;-73
2024/04/16 04:55:47;;;;;;;4.68;1.70;;;;;;;11.81;44.23;98794.28;5227974;26;95350;-73
2024/04/16 04:58:13;;;;;;;3.00;1.45;;;;;;;12.06;43.98;98790.97;5197812;27;97577;-73
2024/04/16 05:00:38;;;;;;;3.20;1.70;;;;;;;12.23;42.80;98767.06;5194529;27;99316;-75
2024/04/16 05:03:04;;;;;;;4.03;1.20;;;;;;;12.75;42.08;98783.81;5229531;27;94733;-73
2024/04/16 05:05:33;;;;;;;3.92;1.40;;;;;;;13.08;40.76;98778.88;5229993;27;94656;-74
2024/04/16 05:07:58;;;;;;;2.28;1.13;;;;;;;13.99;38.85;98754.06;5219304;27;94752;-73
2024/04/16 05:10:24;;;;;;;3.40;1.23;;;;;;;16.30;35.25;98814.72;5226650;26;94699;-73
2024/04/16 05:12:50;;;;;;;3.63;1.30;;;;;;;17.90;33.02;98777.38;5229812;26;94740;-75
2024/04/16 05:15:17;;;;;;;19.23;1.70;;;;;;;19.59;30.27;98768.81;5218400;27;94630;-73
2024/04/16 05:17:42;;;;;;;3.47;1.25;;;;;;;20.74;28.35;98781.56;5220311;27;97893;-73
2024/04/16 05:20:08;;;;;;;3.97;1.20;;;;;;;22.33;26.85;98806.94;5199893;27;97582;-74
2024/04/16 05:22:34;;;;;;;12.23;1.42;;;;;;;23.38;25.06;98784.91;5229789;27;94629;-73
2024/04/16 05:25:00;;;;;;;4.57;1.40;;;;;;;23.93;24.12;98782.19;5196293;27;94560;-72
2024/04/16 05:27:25;;;;;;;2.25;1.52;;;;;;;24.91;23.37;98809.44;5219595;27;94684;-72
2024/04/16 05:29:51;;;;;;;1.98;1.10;;;;;;;25.47;22.39;98794.63;5189443;27;94608;-73
2024/04/16 05:32:16;;;;;;;1.17;1.00;;;;;;;26.68;20.90;98797.81;5191169;27;94655;-72
2024/04/16 05:34:42;;;;;;;3.40;1.08;;;;;;;28.36;20.19;98804.03;5232404;27;94846;-75
2024/04/16 05:37:07;;;;;;;4.25;1.20;;;;;;;28.49;19.25;98798.72;5232066;27;94156;-73
2024/04/16 05:39:33;;;;;;;2.90;1.23;;;;;;;29.11;19.00;98794.00;5228897;26;96113;-73
2024/04/16 05:41:59;;;;;;;1.17;1.00;;;;;;;28.41;18.87;98783.53;5231494;27;94912;-75
2024/04/16 05:44:24;;;;;;;2.20;1.10;;;;;;;29.06;18.15;98791.09;5232003;27;95579;-77
2024/04/16 05:46:50;;;;;;;1.98;1.35;;;;;;;30.03;17.73;98783.22;5169025;27;97629;-77
2024/04/16 05:49:15;;;;;;;4.47;1.63;;;;;;;30.97;16.76;98779.72;5226933;27;94873;-75
2024/04/16 05:51:41;;;;;;;5.38;1.30;;;;;;;31.78;16.44;98796.88;5196819;27;94825;-77
2024/04/16 05:54:06;;;;;;;4.35;2.03;;;;;;;31.01;16.39;98793.66;5198159;27;94996;-78
2024/04/16 05:56:36;;;;;;;2.42;1.10;;;;;;;31.50;16.20;98792.78;5230710;27;94613;-80
2024/04/16 05:59:02;;;;;;;2.38;1.38;;;;;;;33.01;15.19;98781.25;5229394;26;94665;-83
2024/04/16 06:01:28;;;;;;;1.92;1.00;;;;;;;31.49;16.49;98768.63;5230733;26;94594;-75
2024/04/16 06:03:53;;;;;;;1.75;1.10;;;;;;;32.59;15.84;98786.69;5175573;26;94624;-74
2024/04/16 06:06:19;;;;;;;2.42;0.90;;;;;;;30.10;17.41;98773.19;5232886;27;94610;-76
2024/04/16 06:08:44;;;;;;;3.42;1.42;;;;;;;28.88;17.87;98762.00;5236601;26;95372;-77
2024/04/16 06:11:10;;;;;;;1.85;1.00;;;;;;;27.82;18.05;98794.94;5172477;27;94755;-77
2024/04/16 06:13:35;;;;;;;2.55;1.05;;;;;;;28.45;18.35;98775.88;5195430;27;94681;-76
2024/04/16 06:16:01;;;;;;;5.25;0.93;;;;;;;29.05;17.53;98748.94;5233709;27;94665;-77
2024/04/16 06:18:27;;;;;;;3.30;1.40;;;;;;;31.06;16.65;98753.19;5199937;27;98014;-77
2024/04/16 06:20:53;;;;;;;2.33;1.02;;;;;;;32.42;15.73;98765.59;5229815;27;94619;-76
2024/04/16 06:23:20;;;;;;;2.97;1.60;;;;;;;31.93;15.48;98772.13;5235794;27;94569;-77
2024/04/16 06:25:45;;;;;;;2.58;1.10;;;;;;;30.56;16.85;98758.56;5234336;27;94118;-77
2024/04/16 06:28:11;;;;;;;3.53;1.35;;;;;;;34.05;14.04;98758.81;5234866;26;94674;-77
2024/04/16 06:30:36;;;;;;;6.50;1.30;;;;;;;34.87;13.21;98745.56;5218328;27;94626;-76
2024/04/16 06:33:02;;;;;;;16.85;15.38;;;;;;;36.61;12.73;98766.94;5204266;27;95199;-76
2024/04/16 06:35:27;;;;;;;8.95;5.25;;;;;;;38.80;11.32;98729.91;5232331;26;95340;-77
2024/04/16 06:37:53;;;;;;;2.63;1.10;;;;;;;36.56;12.40;98739.56;5230903;27;95809;-77
2024/04/16 06:40:18;;;;;;;3.47;1.60;;;;;;;34.80;13.90;98742.22;5235328;26;94647;-76
2024/04/16 06:42:44;;;;;;;4.00;2.38;;;;;;;35.77;12.71;98753.72;5230027;26;94937;-77
2024/04/16 06:45:10;;;;;;;3.70;2.55;;;;;;;30.32;16.02;98757.50;5200254;27;99346;-76
2024/04/16 06:47:35;;;;;;;4.15;3.85;;;;;;;26.89;18.42;98764.66;5230154;27;95498;-77
2024/04/16 06:50:04;;;;;;;6.97;4.30;;;;;;;22.66;21.88;98782.09;5179318;27;94657;-76
2024/04/16 06:52:30;;;;;;;8.40;2.38;;;;;;;19.88;25.07;98759.88;5236014;26;95273;-77
2024/04/16 06:54:56;;;;;;;5.72;0.95;;;;;;;18.41;26.78;98766.50;5228901;26;94616;-73
2024/04/16 06:57:21;;;;;;;15.70;14.68;;;;;;;17.75;28.15;98808.72;5230855;27;94632;-73
2024/04/16 06:59:47;;;;;;;19.00;17.80;;;;;;;17.23;28.72;98776.94;5205281;27;94624;-75
2024/04/16 07:02:12;;;;;;;20.88;19.27;;;;;;;17.35;28.83;98790.97;5231514;27;93728;-73
2024/04/16 07:04:38;;;;;;;30.00;27.52;;;;;;;16.95;29.57;98762.53;5232271;27;94692;-75
2024/04/16 07:07:03;;;;;;;16.65;15.45;;;;;;;16.30;30.31;98790.91;5198173;27;97470;-73
2024/04/16 07:09:29;;;;;;;2.90;0.98;;;;;;;16.38;30.89;98795.56;5225513;26;96428;-76
2024/04/16 07:11:54;;;;;;;3.00;1.00;;;;;;;16.18;31.34;98791.91;5202105;27;93721;-71
2024/04/16 07:14:20;;;;;;;3.60;1.35;;;;;;;15.25;32.84;98777.16;5232295;26;94446;-71
2024/04/16 07:16:45;;;;;;;1.88;0.95;;;;;;;15.23;32.51;98791.47;5228639;26;94778;-74
2024/04/16 07:19:11;;;;;;;11.20;7.50;;;;;;;15.66;32.17;98774.88;5234383;26;94740;-74
2024/04/16 07:21:37;;;;;;;1.58;0.80;;;;;;;15.79;31.87;98722.69;5231758;27;94583;-73
2024/04/16 07:24:02;;;;;;;4.72;1.02;;;;;;;16.91;31.24;98775.22;5231174;27;97119;-73
2024/04/16 07:26:27;;;;;;;4.65;1.20;;;;;;;16.36;31.33;98755.13;5234697;27;95123;-72
2024/04/16 07:28:53;;;;;;;4.07;1.00;;;;;;;16.09;32.61;98787.34;5226443;27;94958;-74
2024/04/16 07:31:19;;;;;;;8.32;1.40;;;;;;;15.11;32.83;98782.69;5224709;26;94709;-75
2024/04/16 07:33:44;;;;;;;5.13;1.15;;;;;;;15.12;33.26;98810.78;5203166;27;94735;-74
2024/04/16 07:36:10;;;;;;;1.55;0.93;;;;;;;14.67;33.77;98818.59;5201499;27;94709;-74
2024/04/16 07:38:35;;;;;;;2.50;1.20;;;;;;;14.04;34.18;98810.81;5231393;27;95288;-75
2024/04/16 07:41:01;;;;;;;7.68;7.18;;;;;;;14.14;34.66;98821.56;5233799;26;94766;-74
2024/04/16 07:43:26;;;;;;;2.15;1.95;;;;;;;14.16;34.80;98805.59;5228635;27;95117;-74
2024/04/16 07:45:52;;;;;;;2.67;2.00;;;;;;;14.20;34.33;98778.06;5227992;26;94903;-77
2024/04/16 07:48:18;;;;;;;3.20;0.93;;;;;;;14.39;34.55;98794.19;5197789;27;94702;-75
2024/04/16 07:50:43;;;;;;;3.42;0.95;;;;;;;14.01;35.41;98789.09;5224649;26;94550;-76
2024/04/16 07:53:09;;;;;;;2.97;1.20;;;;;;;14.47;34.70;98801.56;5197491;26;97510;-76
2024/04/16 07:55:34;;;;;;;3.28;0.93;;;;;;;14.83;34.51;98805.91;5224473;27;94789;-75
2024/04/16 07:58:00;;;;;;;2.70;1.35;;;;;;;14.56;34.32;98771.03;5227419;26;94614;-74
2024/04/16 08:00:28;;;;;;;3.67;1.50;;;;;;;15.13;33.43;98788.69;5234324;26;94722;-77
2024/04/16 08:02:54;;;;;;;4.35;1.63;;;;;;;15.00;34.51;98772.94;5232241;26;94559;-75
2024/04/16 08:05:20;;;;;;;4.00;1.23;;;;;;;15.08;33.74;98772.34;5233977;26;94688;-75
2024/04/16 08:07:45;;;;;;;7.00;1.20;;;;;;;15.03;33.56;98793.81;5234895;26;95470;-77
2024/04/16 08:10:11;;;;;;;3.03;1.40;;;;;;;16.07;32.35;98793.59;5214753;26;94644;-76
2024/04/16 08:12:36;;;;;;;2.35;1.35;;;;;;;17.19;31.27;98802.03;5232429;27;93532;-75
2024/04/16 08:15:04;;;;;;;2.78;1.00;;;;;;;17.05;31.05;98770.56;5233420;26;94614;-74
2024/04/16 08:17:30;;;;;;;3.65;1.40;;;;;;;18.87;28.79;98769.47;5235028;26;94675;-75
2024/04/16 08:19:55;;;;;;;2.40;1.10;;;;;;;23.31;24.32;98759.84;5205337;27;94671;-73
2024/04/16 08:22:21;;;;;;;3.88;1.30;;;;;;;33.25;16.55;98752.16;5233177;27;94700;-77
2024/04/16 08:24:46;;;;;;;2.35;2.15;;;;;;;41.03;11.36;98745.63;5227453;27;95479;-78
2024/04/16 08:27:12;;;;;;;2.55;1.20;;;;;;;44.34;9.95;98750.84;5224283;26;94820;-79
2024/04/16 08:29:37;;;;;;;11.82;10.88;;;;;;;44.16;9.10;98742.38;5223220;27;94944;-78
2024/04/16 08:32:03;;;;;;;2.55;1.60;;;;;;;47.05;8.70;98743.88;5227944;26;95934;-78
2024/04/16 08:34:28;;;;;;;19.13;18.00;;;;;;;47.48;7.65;98742.91;5227921;26;95426;-78
2024/04/16 08:36:54;;;;;;;9.85;9.25;;;;;;;45.30;8.91;98747.59;5221944;27;95859;-77
2024/04/16 08:39:19;;;;;;;8.00;1.45;;;;;;;48.35;7.63;98742.34;5221471;27;96345;-78
2024/04/16 08:41:45;;;;;;;9.95;6.55;;;;;;;51.48;6.12;98750.84;5224811;27;96040;-78
2024/04/16 08:44:11;;;;;;;2.97;1.90;;;;;;;52.37;5.59;98744.50;5198441;27;96242;-78
2024/04/16 08:46:37;;;;;;;8.40;1.95;;;;;;;52.84;6.23;98748.19;5172488;27;95159;-78
2024/04/16 08:49:04;;;;;;;6.68;1.65;;;;;;;51.50;6.15;98746.50;5230137;27;95086;-78
2024/04/16 08:51:29;;;;;;;7.05;1.70;;;;;;;53.04;5.69;98738.59;5217620;27;96275;-78
2024/04/16 08:53:55;;;;;;;3.10;1.60;;;;;;;52.92;5.20;98733.13;5229196;27;95913;-78
2024/04/16 08:56:20;;;;;;;4.90;1.92;;;;;;;52.85;5.17;98727.41;5196419;27;95528;-78
2024/04/16 08:58:46;;;;;;;4.47;1.42;;;;;;;53.66;5.31;98730.00;5223587;27;96176;-80
2024/04/16 09:01:12;;;;;;;1.92;1.25;;;;;;;44.19;7.98;98732.63;5220995;27;95347;-78
2024/04/16 09:03:38;;;;;;;2.63;1.90;;;;;;;49.48;6.63;98706.84;5224578;26;95493;-78
2024/04/16 09:06:04;;;;;;;1.83;1.73;;;;;;;53.92;5.35;98711.50;5228311;27;94722;-78
2024/04/16 09:08:31;;;;;;;3.60;1.85;;;;;;;50.83;5.92;98707.28;5223983;27;94942;-79
2024/04/16 09:10:57;;;;;;;2.30;1.42;;;;;;;46.24;7.47;98734.28;5225796;26;96019;-78
2024/04/16 09:13:22;;;;;;;7.25;1.65;;;;;;;45.62;7.86;98713.16;5200519;27;96083;-78
2024/04/16 09:15:48;;;;;;;7.28;1.90;;;;;;;48.90;5.83;98718.88;5224416;27;94727;-78
2024/04/16 09:18:22;;;;;;;2.60;1.20;;;;;;;43.23;8.18;98715.03;5231380;26;94811;-78
2024/04/16 09:20:47;;;;;;;7.70;1.15;;;;;;;34.03;12.60;98740.84;5226227;27;94784;-77
2024/04/16 09:23:13;;;;;;;1.92;1.05;;;;;;;36.84;10.48;98735.72;5193101;27;99306;-77
2024/04/16 09:25:40;;;;;;;2.22;1.27;;;;;;;44.16;8.40;98736.84;5224643;26;96684;-77
2024/04/16 09:28:05;;;;;;;2.33;1.20;;;;;;;44.78;8.10;98733.47;5223167;26;94663;-77
2024/04/16 09:30:31;;;;;;;9.00;1.13;;;;;;;36.54;10.50;98716.31;5226037;26;96134;-77
2024/04/16 09:33:01;;;;;;;4.55;1.05;;;;;;;30.23;15.18;98729.84;5210614;27;97462;-77
2024/04/16 09:35:28;;;;;;;4.90;1.20;;;;;;;27.73;16.89;98761.06;5200536;27;94619;-77
2024/04/16 09:38:00;;;;;;;2.70;1.02;;;;;;;24.76;19.01;98736.94;5199304;27;94762;-76
2024/04/16 09:40:29;;;;;;;17.88;16.58;;;;;;;23.03;20.84;98736.97;5230123;26;94739;-76
2024/04/16 09:42:56;;;;;;;19.20;17.70;;;;;;;22.39;21.24;98770.72;5228284;27;94810;-76
2024/04/16 09:45:22;;;;;;;8.15;7.65;;;;;;;22.84;21.36;98766.72;5177221;27;94709;-79
2024/04/16 09:47:48;;;;;;;1.52;0.90;;;;;;;23.04;22.05;98772.59;5227165;26;94656;-76
2024/04/16 09:50:14;;;;;;;5.35;4.63;;;;;;;22.56;22.03;98763.53;5202097;27;97307;-76
2024/04/16 09:52:39;;;;;;;3.50;0.85;;;;;;;21.83;23.50;98769.56;5200826;27;95169;-73
2024/04/16 09:55:06;;;;;;;2.25;1.00;;;;;;;21.13;23.90;98753.66;5204159;26;94756;-74
2024/04/16 09:57:32;;;;;;;1.73;1.10;;;;;;;21.36;23.71;98738.81;5234131;27;94504;-74
2024/04/16 10:00:00;;;;;;;1.77;0.73;;;;;;;21.17;23.61;98731.00;5228625;26;93976;-73
2024/04/16 10:02:26;;;;;;;4.32;0.80;;;;;;;21.50;23.16;98761.41;5199444;26;97560;-73
2024/04/16 10:04:53;;;;;;;2.72;1.10;;;;;;;21.65;23.70;98762.47;5176111;27;94659;-76
2024/04/16 10:07:19;;;;;;;4.70;1.15;;;;;;;22.19;22.03;98737.28;5194591;27;94649;-74
2024/04/16 10:09:44;;;;;;;2.70;1.40;;;;;;;21.62;22.46;98765.47;5225687;26;94677;-75
2024/04/16 10:12:10;;;;;;;5.82;1.20;;;;;;;21.53;23.35;98744.25;5233216;27;95260;-73
2024/04/16 10:14:36;;;;;;;4.45;1.27;;;;;;;22.57;22.20;98742.00;5231903;27;95011;-73
2024/04/16 10:17:01;;;;;;;3.35;1.30;;;;;;;22.46;22.12;98745.00;5232103;26;94921;-76
2024/04/16 10:19:28;;;;;;;5.07;1.45;;;;;;;22.69;22.71;98742.50;5217670;27;95238;-73
2024/04/16 10:22:00;;;;;;;4.45;1.50;;;;;;;21.92;23.35;98731.19;5203773;26;94696;-74
2024/04/16 10:24:26;;;;;;;4.20;1.20;;;;;;;22.00;23.24;98725.03;5198304;26;95032;-74
2024/04/16 10:26:56;;;;;;;4.15;0.85;;;;;;;20.65;24.00;98726.50;5229762;26;95077;-74
2024/04/16 10:29:26;;;;;;;3.65;1.15;;;;;;;21.20;24.03;98763.53;5229821;26;94832;-75
2024/04/16 10:31:54;;;;;;;3.30;1.25;;;;;;;21.51;23.69;98724.88;5231148;26;94832;-75
2024/04/16 10:34:21;;;;;;;3.20;1.05;;;;;;;21.74;23.73;98751.84;5228586;26;94754;-74
2024/04/16 10:36:48;;;;;;;3.58;1.27;;;;;;;21.68;23.36;98747.97;5202042;26;94779;-77
2024/04/16 10:39:14;;;;;;;4.30;1.38;;;;;;;21.98;23.50;98745.72;5222851;26;95255;-74
2024/04/16 10:41:51;;;;;;;1.98;0.85;;;;;;;21.41;23.41;98754.34;5229383;27;95568;-76
2024/04/16 10:44:17;;;;;;;2.95;0.85;;;;;;;20.50;24.16;98731.50;5164068;27;95350;-74
2024/04/16 10:46:44;;;;;;;2.75;1.17;;;;;;;20.59;24.42;98751.09;5230099;26;94685;-74
2024/04/16 10:49:11;;;;;;;2.25;1.00;;;;;;;21.08;23.08;98715.94;5196442;27;97197;-76
2024/04/16 10:51:37;;;;;;;1.42;0.80;;;;;;;21.48;23.24;98739.38;5219514;26;95381;-78
2024/04/16 10:54:09;;;;;;;2.22;1.10;;;;;;;21.27;22.79;98722.91;5174715;27;94696;-77
2024/04/16 10:56:39;;;;;;;2.70;1.10;;;;;;;20.55;22.74;98718.59;5225815;26;95107;-74
2024/04/16 10:59:08;;;;;;;3.85;1.08;;;;;;;20.84;23.63;98729.97;5173710;27;97522;-76
2024/04/16 11:01:41;;;;;;;2.47;1.02;;;;;;;20.72;24.13;98737.41;5200296;27;94585;-76
2024/04/16 11:04:10;;;;;;;3.38;1.58;;;;;;;20.43;24.76;98726.97;5196704;27;94792;-75
2024/04/16 11:06:37;;;;;;;3.33;1.02;;;;;;;20.07;24.15;98713.63;5201390;27;94664;-75
2024/04/16 11:09:03;;;;;;;4.68;1.27;;;;;;;19.88;24.51;98694.16;5231797;27;94786;-82
2024/04/16 11:11:29;;;;;;;2.10;0.80;;;;;;;20.05;25.07;98728.94;5200189;27;94836;-79
2024/04/16 11:13:55;;;;;;;2.15;0.88;;;;;;;20.93;24.96;98710.38;5199283;26;94658;-82
2024/04/16 11:16:22;;;;;;;2.58;0.88;;;;;;;20.33;24.56;98701.25;5226924;26;94819;-81
2024/04/16 11:18:48;;;;;;;2.95;1.02;;;;;;;19.50;24.53;98692.53;5201668;27;97496;-80
2024/04/16 11:21:14;;;;;;;8.68;1.23;;;;;;;19.37;24.68;98713.31;5230435;26;94728;-77
2024/04/16 11:23:40;;;;;;;2.75;1.10;;;;;;;18.84;25.75;98736.03;5223339;26;96484;-79
2024/04/16 11:26:06;;;;;;;4.55;1.08;;;;;;;18.76;25.72;98707.53;5225498;26;94771;-78
2024/04/16 11:28:32;;;;;;;4.15;1.25;;;;;;;18.46;26.82;98697.88;5227244;26;93942;-79
2024/04/16 11:30:58;;;;;;;6.53;1.05;;;;;;;18.84;27.05;98728.06;5167551;27;97519;-77
2024/04/16 11:33:24;;;;;;;3.65;1.30;;;;;;;19.39;27.43;98759.25;5197073;27;94745;-78